createdAt,value
2022-10-23T00:02:02.577Z,1.27
2022-10-23T00:04:29.313Z,1.50
2022-10-23T00:06:56.040Z,1.35
2022-10-23T00:09:24.532Z,1.50
2022-10-23T00:11:52.649Z,1.35
2022-10-23T00:14:26.236Z,1.35
2022-10-23T00:16:52.800Z,1.30
2022-10-23T00:19:19.665Z,1.20
2022-10-23T00:21:54.527Z,1.00
2022-10-23T00:24:24.283Z,1.05
2022-10-23T00:26:51.032Z,1.00
2022-10-23T00:29:17.745Z,0.95
2022-10-23T00:31:44.253Z,1.23
2022-10-23T00:34:11.113Z,0.98
2022-10-23T00:36:43.278Z,1.08
2022-10-23T00:39:09.760Z,1.15
2022-10-23T00:41:36.268Z,1.25
2022-10-23T00:44:38.028Z,1.15
2022-10-23T00:47:04.716Z,1.20
2022-10-23T00:49:33.537Z,1.08
2022-10-23T00:52:04.985Z,1.23
2022-10-23T00:54:34.563Z,1.10
2022-10-23T00:57:02.769Z,1.33
2022-10-23T00:59:32.115Z,1.20
2022-10-23T01:01:59.448Z,1.10
2022-10-23T01:04:27.691Z,1.00
2022-10-23T01:07:33.462Z,1.10
2022-10-23T01:10:13.996Z,1.10
2022-10-23T01:12:49.581Z,0.90
2022-10-23T01:15:41.817Z,1.20
2022-10-23T01:21:05.415Z,1.20
2022-10-23T01:24:01.135Z,1.20
2022-10-23T01:27:11.556Z,1.30
2022-10-23T01:29:59.436Z,1.30
2022-10-23T01:33:00.962Z,1.00
2022-10-23T01:35:38.106Z,1.20
2022-10-23T01:38:13.762Z,1.38
2022-10-23T01:40:48.781Z,1.25
2022-10-23T01:43:27.730Z,1.30
2022-10-23T01:46:05.339Z,1.27
2022-10-23T01:48:33.618Z,1.45
2022-10-23T01:51:04.714Z,1.02
2022-10-23T01:53:38.130Z,0.88
2022-10-23T01:56:09.746Z,1.10
2022-10-23T01:58:37.967Z,1.10
2022-10-23T02:01:07.902Z,1.00
2022-10-23T02:03:37.386Z,1.00
2022-10-23T02:06:06.386Z,1.08
2022-10-23T02:08:33.079Z,1.25
2022-10-23T02:11:14.523Z,1.10
2022-10-23T02:13:59.055Z,1.30
2022-10-23T02:16:42.653Z,1.10
2022-10-23T02:19:29.395Z,1.27
2022-10-23T02:22:04.029Z,1.50
2022-10-23T02:24:39.698Z,1.52
2022-10-23T02:27:13.529Z,1.50
2022-10-23T02:29:50.653Z,1.65
2022-10-23T02:32:20.271Z,1.48
2022-10-23T02:34:48.015Z,1.63
2022-10-23T02:37:18.656Z,1.50
2022-10-23T02:39:45.616Z,1.65
2022-10-23T02:42:22.518Z,1.23
2022-10-23T02:45:12.630Z,1.38
2022-10-23T02:47:58.796Z,1.73
2022-10-23T02:50:29.241Z,1.75
2022-10-23T02:53:14.532Z,1.67
2022-10-23T02:55:55.912Z,1.60
2022-10-23T02:58:32.418Z,1.50
2022-10-23T03:01:10.570Z,1.60
2022-10-23T03:03:45.793Z,1.40
2022-10-23T03:06:12.954Z,1.70
2022-10-23T03:08:44.514Z,1.80
2022-10-23T03:11:13.378Z,1.80
2022-10-23T03:13:42.199Z,1.70
2022-10-23T03:16:08.694Z,2.10
2022-10-23T03:18:35.805Z,1.90
2022-10-23T03:21:02.414Z,1.85
2022-10-23T03:23:28.892Z,1.80
2022-10-23T03:26:01.940Z,1.90
2022-10-23T03:28:28.501Z,2.10
2022-10-23T03:30:56.031Z,2.45
2022-10-23T03:33:24.570Z,1.80
2022-10-23T03:35:51.090Z,1.90
2022-10-23T03:38:17.881Z,1.90
2022-10-23T03:40:46.201Z,2.10
2022-10-23T03:43:12.714Z,2.30
2022-10-23T03:45:39.313Z,2.35
2022-10-23T03:48:08.601Z,1.88
2022-10-23T03:50:35.838Z,2.08
2022-10-23T03:53:02.323Z,1.65
2022-10-23T03:55:29.059Z,1.98
2022-10-23T04:00:23.358Z,2.00
2022-10-23T04:02:51.686Z,2.00
2022-10-23T04:05:18.189Z,1.92
2022-10-23T04:07:47.011Z,1.95
2022-10-23T04:10:15.256Z,2.42
2022-10-23T04:12:42.285Z,2.00
2022-10-23T04:15:09.224Z,2.10
2022-10-23T04:17:42.349Z,2.25
2022-10-23T04:20:09.411Z,2.22
2022-10-23T04:22:35.874Z,2.20
2022-10-23T04:25:02.674Z,2.40
2022-10-23T04:27:29.189Z,2.45
2022-10-23T04:29:59.124Z,2.63
2022-10-23T04:32:26.357Z,2.60
2022-10-23T04:34:52.870Z,2.67
2022-10-23T04:37:19.703Z,2.53
2022-10-23T04:39:51.436Z,2.75
2022-10-23T04:42:17.985Z,2.20
2022-10-23T04:44:44.486Z,3.00
2022-10-23T04:47:11.073Z,2.92
2022-10-23T04:49:37.819Z,2.70
2022-10-23T04:52:04.440Z,2.63
2022-10-23T04:54:36.797Z,2.63
2022-10-23T04:57:03.400Z,2.03
2022-10-23T04:59:29.947Z,2.15
2022-10-23T05:02:03.112Z,2.20
2022-10-23T05:04:29.651Z,2.00
2022-10-23T05:06:56.301Z,1.60
2022-10-23T05:09:24.629Z,1.60
2022-10-23T05:11:53.027Z,2.17
2022-10-23T05:14:22.681Z,1.98
2022-10-23T05:17:15.783Z,2.13
2022-10-23T05:19:46.546Z,2.05
2022-10-23T05:22:15.485Z,2.10
2022-10-23T05:24:46.943Z,2.20
2022-10-23T05:27:19.729Z,2.35
2022-10-23T05:29:46.595Z,2.00
2022-10-23T05:32:15.268Z,2.15
2022-10-23T05:34:42.809Z,1.90
2022-10-23T05:37:13.049Z,1.80
2022-10-23T05:39:44.292Z,1.70
2022-10-23T05:42:10.834Z,1.80
2022-10-23T05:44:37.439Z,1.65
2022-10-23T05:47:04.042Z,1.60
2022-10-23T05:49:30.580Z,2.08
2022-10-23T05:51:57.131Z,1.73
2022-10-23T05:54:23.782Z,1.60
2022-10-23T05:56:50.309Z,2.00
2022-10-23T05:59:20.420Z,2.00
2022-10-23T06:01:50.817Z,2.42
2022-10-23T06:04:28.098Z,2.22
2022-10-23T06:06:58.564Z,2.42
2022-10-23T06:09:25.406Z,2.50
2022-10-23T06:11:52.058Z,3.42
2022-10-23T06:14:18.582Z,2.45
2022-10-23T06:16:45.236Z,2.38
2022-10-23T06:19:12.738Z,2.80
2022-10-23T06:21:40.130Z,2.50
2022-10-23T06:24:07.512Z,2.92
2022-10-23T06:26:34.354Z,2.83
2022-10-23T06:29:00.983Z,3.03
2022-10-23T06:31:28.398Z,3.10
2022-10-23T06:33:58.151Z,3.70
2022-10-23T06:36:25.470Z,2.83
2022-10-23T06:38:52.352Z,2.90
2022-10-23T06:41:21.320Z,2.60
2022-10-23T06:43:49.872Z,2.80
2022-10-23T06:46:17.792Z,3.08
2022-10-23T06:48:46.823Z,3.42
2022-10-23T06:51:17.046Z,3.92
2022-10-23T06:53:44.582Z,3.95
2022-10-23T06:56:13.803Z,3.90
2022-10-23T06:58:42.563Z,3.63
2022-10-23T07:01:12.301Z,3.25
2022-10-23T07:03:39.123Z,3.30
2022-10-23T07:06:09.484Z,3.33
2022-10-23T07:08:37.013Z,3.15
2022-10-23T07:11:08.203Z,3.17
2022-10-23T07:13:36.435Z,3.05
2022-10-23T07:16:23.146Z,3.33
2022-10-23T07:18:58.674Z,3.00
2022-10-23T07:21:26.523Z,2.45
2022-10-23T07:23:53.052Z,2.60
2022-10-23T07:26:19.835Z,2.63
2022-10-23T07:28:50.299Z,2.28
2022-10-23T07:31:16.884Z,2.30
2022-10-23T07:33:45.710Z,2.38
2022-10-23T07:36:14.520Z,2.03
2022-10-23T07:38:41.309Z,1.95
2022-10-23T07:41:11.528Z,2.15
2022-10-23T07:43:39.815Z,2.40
2022-10-23T07:46:08.359Z,2.10
2022-10-23T07:48:34.818Z,2.00
2022-10-23T07:51:08.193Z,1.88
2022-10-23T07:53:35.898Z,1.92
2022-10-23T07:56:05.418Z,2.00
2022-10-23T07:58:33.617Z,2.08
2022-10-23T08:01:01.661Z,1.80
2022-10-23T08:03:30.702Z,1.75
2022-10-23T08:06:00.107Z,1.80
2022-10-23T08:08:27.253Z,1.50
2022-10-23T08:10:55.421Z,1.50
2022-10-23T08:13:28.909Z,2.03
2022-10-23T08:15:55.992Z,2.00
2022-10-23T08:18:22.588Z,2.13
2022-10-23T08:20:53.305Z,1.95
2022-10-23T08:23:20.284Z,1.83
2022-10-23T08:25:47.102Z,1.90
2022-10-23T08:28:15.404Z,2.10
2022-10-23T08:30:42.119Z,2.13
2022-10-23T08:33:09.329Z,2.05
2022-10-23T08:35:37.610Z,2.10
2022-10-23T08:38:04.952Z,2.80
2022-10-23T08:40:31.889Z,2.60
2022-10-23T08:43:21.775Z,2.22
2022-10-23T08:45:59.973Z,2.53
2022-10-23T08:48:33.321Z,2.88
2022-10-23T08:51:11.450Z,2.60
2022-10-23T08:53:52.939Z,2.35
2022-10-23T08:56:28.154Z,2.15
2022-10-23T08:59:02.569Z,2.53
2022-10-23T09:01:43.178Z,2.67
2022-10-23T09:04:14.530Z,2.80
2022-10-23T09:07:17.437Z,2.63
2022-10-23T09:09:50.468Z,2.50
2022-10-23T09:12:24.390Z,3.00
2022-10-23T09:15:17.141Z,2.30
2022-10-23T09:17:44.517Z,2.60
2022-10-23T09:20:14.406Z,2.35
2022-10-23T09:22:42.197Z,2.63
2022-10-23T09:25:18.344Z,2.45
2022-10-23T09:27:54.781Z,2.30
2022-10-23T09:30:36.288Z,2.00
2022-10-23T09:33:25.191Z,2.28
2022-10-23T09:36:04.317Z,2.33
2022-10-23T09:38:36.913Z,2.25
2022-10-23T09:41:13.202Z,2.13
2022-10-23T09:43:40.117Z,2.25
2022-10-23T09:46:07.466Z,2.38
2022-10-23T09:48:34.604Z,2.35
2022-10-23T09:51:04.022Z,2.20
2022-10-23T09:53:39.138Z,2.53
2022-10-23T09:56:28.591Z,2.22
2022-10-23T09:58:59.001Z,2.50
2022-10-23T10:01:28.917Z,2.95
2022-10-23T10:04:00.363Z,2.78
2022-10-23T10:06:30.016Z,2.92
2022-10-23T10:09:28.059Z,2.88
2022-10-23T10:11:59.274Z,3.05
2022-10-23T10:14:34.661Z,3.35
2022-10-23T10:17:04.590Z,3.38
2022-10-23T10:19:52.479Z,3.20
2022-10-23T10:22:39.480Z,3.08
2022-10-23T10:25:38.301Z,4.15
2022-10-23T10:28:29.707Z,3.90
2022-10-23T10:31:26.551Z,4.25
2022-10-23T10:34:20.563Z,3.72
2022-10-23T10:36:56.364Z,3.97
2022-10-23T10:42:18.695Z,3.40
2022-10-23T10:44:50.246Z,3.42
2022-10-23T10:47:21.259Z,3.88
2022-10-23T10:50:07.775Z,3.80
2022-10-23T10:55:28.341Z,3.10
2022-10-23T10:58:04.870Z,2.85
2022-10-23T11:00:34.051Z,2.50
2022-10-23T11:03:11.408Z,2.90
2022-10-23T11:05:45.327Z,2.90
2022-10-23T11:08:22.299Z,3.08
2022-10-23T11:10:53.597Z,3.15
2022-10-23T11:13:35.996Z,3.38
2022-10-23T11:16:10.394Z,2.92
2022-10-23T11:18:40.679Z,4.20
2022-10-23T11:21:20.684Z,3.75
2022-10-23T11:24:11.313Z,3.17
2022-10-23T11:26:47.139Z,2.88
2022-10-23T11:30:03.341Z,2.80
2022-10-23T11:32:42.435Z,2.40
2022-10-23T11:35:14.971Z,2.67
2022-10-23T11:37:41.914Z,2.50
2022-10-23T11:40:08.507Z,2.65
2022-10-23T11:42:41.029Z,2.55
2022-10-23T11:45:28.206Z,2.50
2022-10-23T11:48:14.049Z,2.55
2022-10-23T11:50:46.476Z,2.80
2022-10-23T11:53:24.960Z,2.85
2022-10-23T11:55:58.878Z,2.58
2022-10-23T11:58:40.998Z,2.35
2022-10-23T12:01:26.465Z,2.20
2022-10-23T12:03:58.314Z,2.30
2022-10-23T12:06:29.715Z,1.73
2022-10-23T12:09:01.848Z,1.73
2022-10-23T12:11:41.731Z,2.83
2022-10-23T12:14:32.704Z,2.50
2022-10-23T12:17:02.156Z,3.50
2022-10-23T12:19:31.142Z,3.50
2022-10-23T12:22:01.070Z,3.28
2022-10-23T12:24:48.746Z,3.50
2022-10-23T12:27:26.351Z,3.78
2022-10-23T12:30:11.421Z,3.70
2022-10-23T12:32:37.832Z,3.45
2022-10-23T12:35:18.288Z,3.15
2022-10-23T12:37:51.570Z,3.10
2022-10-23T12:40:18.408Z,2.78
2022-10-23T12:42:55.379Z,3.15
2022-10-23T12:45:26.907Z,2.50
2022-10-23T12:47:54.124Z,2.95
2022-10-23T12:50:20.740Z,2.65
2022-10-23T12:53:01.075Z,2.42
2022-10-23T12:55:33.603Z,2.50
2022-10-23T12:58:02.325Z,2.80
2022-10-23T13:00:29.436Z,2.45
2022-10-23T13:03:00.845Z,2.40
2022-10-23T13:05:30.334Z,2.70
2022-10-23T13:07:59.393Z,2.67
2022-10-23T13:10:26.539Z,3.00
2022-10-23T13:13:02.813Z,2.83
2022-10-23T13:15:40.789Z,2.67
2022-10-23T13:18:09.072Z,2.78
2022-10-23T13:20:55.600Z,3.35
2022-10-23T13:23:34.375Z,3.03
2022-10-23T13:26:05.313Z,2.90
2022-10-23T13:28:33.417Z,3.22
2022-10-23T13:31:02.972Z,2.90
2022-10-23T13:33:37.120Z,3.10
2022-10-23T13:36:15.301Z,3.08
2022-10-23T13:39:03.687Z,3.03
2022-10-23T13:41:36.932Z,3.17
2022-10-23T13:44:03.804Z,3.28
2022-10-23T13:46:32.641Z,3.20
2022-10-23T13:48:59.105Z,2.92
2022-10-23T13:51:28.618Z,3.85
2022-10-23T13:53:56.799Z,3.63
2022-10-23T13:56:25.593Z,3.67
2022-10-23T13:58:52.076Z,3.88
2022-10-23T14:01:40.213Z,3.88
2022-10-23T14:04:07.549Z,3.70
2022-10-23T14:06:34.352Z,4.10
2022-10-23T14:09:02.754Z,4.03
2022-10-23T14:11:29.292Z,4.13
2022-10-23T14:13:58.090Z,3.88
2022-10-23T14:16:24.728Z,3.17
2022-10-23T14:18:51.350Z,3.30
2022-10-23T14:21:20.198Z,3.35
2022-10-23T14:23:54.004Z,3.22
2022-10-23T14:26:27.489Z,2.67
2022-10-23T14:28:55.691Z,2.85
2022-10-23T14:31:22.988Z,3.20
2022-10-23T14:33:55.942Z,3.30
2022-10-23T14:36:23.675Z,3.00
2022-10-23T14:38:59.037Z,2.80
2022-10-23T14:41:26.623Z,3.13
2022-10-23T14:43:58.783Z,3.28
2022-10-23T14:46:25.851Z,3.13
2022-10-23T14:49:02.345Z,3.00
2022-10-23T14:51:30.576Z,2.50
2022-10-23T14:54:03.639Z,2.85
2022-10-23T14:56:32.728Z,3.53
2022-10-23T14:59:04.699Z,2.92
2022-10-23T15:01:33.645Z,3.13
2022-10-23T15:04:00.478Z,3.45
2022-10-23T15:06:29.454Z,2.88
2022-10-23T15:08:56.020Z,3.00
2022-10-23T15:11:24.182Z,3.53
2022-10-23T15:13:53.225Z,2.80
2022-10-23T15:16:20.530Z,3.10
2022-10-23T15:18:47.121Z,3.25
2022-10-23T15:21:14.804Z,2.70
2022-10-23T15:23:43.760Z,2.90
2022-10-23T15:26:21.763Z,3.00
2022-10-23T15:28:53.399Z,2.88
2022-10-23T15:31:35.683Z,2.88
2022-10-23T15:34:02.178Z,3.00
2022-10-23T15:36:28.904Z,2.53
2022-10-23T15:38:57.576Z,2.70
2022-10-23T15:41:29.367Z,2.80
2022-10-23T15:43:56.147Z,3.15
2022-10-23T15:46:22.834Z,3.65
2022-10-23T15:48:52.696Z,3.58
2022-10-23T15:51:19.557Z,2.80
2022-10-23T15:53:46.273Z,3.15
2022-10-23T15:56:12.918Z,3.20
2022-10-23T15:58:41.347Z,3.35
2022-10-23T16:01:08.172Z,2.67
2022-10-23T16:03:38.770Z,2.63
2022-10-23T16:06:07.281Z,2.65
2022-10-23T16:08:35.686Z,2.95
2022-10-23T16:11:03.182Z,3.10
2022-10-23T16:13:29.711Z,2.10
2022-10-23T16:15:59.961Z,2.53
2022-10-23T16:18:26.463Z,2.83
2022-10-23T16:20:55.555Z,2.88
2022-10-23T16:23:30.380Z,3.15
2022-10-23T16:25:56.847Z,2.90
2022-10-23T16:28:23.365Z,2.72
2022-10-23T16:30:50.097Z,2.72
2022-10-23T16:33:16.565Z,2.83
2022-10-23T16:35:43.393Z,2.78
2022-10-23T16:38:11.602Z,2.75
2022-10-23T16:40:38.097Z,2.38
2022-10-23T16:43:04.782Z,2.65
2022-10-23T16:45:34.397Z,3.25
2022-10-23T16:48:03.721Z,2.58
2022-10-23T16:50:30.340Z,2.55
2022-10-23T16:52:58.563Z,3.00
2022-10-23T16:55:25.035Z,2.97
2022-10-23T16:57:51.552Z,3.00
2022-10-23T17:00:24.354Z,2.58
2022-10-23T17:02:50.802Z,3.17
2022-10-23T17:05:17.316Z,2.58
2022-10-23T17:07:45.860Z,2.65
2022-10-23T17:10:14.838Z,2.78
2022-10-23T17:12:41.326Z,2.80
2022-10-23T17:15:08.878Z,2.55
2022-10-23T17:17:35.409Z,2.70
2022-10-23T17:20:01.880Z,2.70
2022-10-23T17:22:28.527Z,2.50
2022-10-23T17:24:55.002Z,2.17
2022-10-23T17:27:21.536Z,2.90
2022-10-23T17:29:49.764Z,2.22
2022-10-23T17:32:16.613Z,2.40
2022-10-23T17:34:43.122Z,2.55
2022-10-23T17:37:12.440Z,2.20
2022-10-23T17:39:40.464Z,2.40
2022-10-23T17:45:04.564Z,2.28
2022-10-23T17:47:31.068Z,2.83
2022-10-23T17:49:57.547Z,2.13
2022-10-23T17:52:24.078Z,2.17
2022-10-23T17:54:53.657Z,2.33
2022-10-23T17:57:27.594Z,2.10
2022-10-23T17:59:54.240Z,3.10
2022-10-23T18:02:20.830Z,3.38
2022-10-23T18:04:47.537Z,2.60
2022-10-23T18:07:15.656Z,3.00
2022-10-23T18:09:42.587Z,2.65
2022-10-23T18:12:12.725Z,2.53
2022-10-23T18:14:39.252Z,2.13
2022-10-23T18:17:05.792Z,2.47
2022-10-23T18:19:34.549Z,2.53
2022-10-23T18:22:01.017Z,2.42
2022-10-23T18:27:24.251Z,2.60
2022-10-23T18:29:51.109Z,2.67
2022-10-23T18:32:17.599Z,2.38
2022-10-23T18:34:44.206Z,2.70
2022-10-23T18:37:10.699Z,2.20
2022-10-23T18:39:37.416Z,2.70
2022-10-23T18:42:04.449Z,2.30
2022-10-23T18:44:30.978Z,2.50
2022-10-23T18:46:59.292Z,2.25
2022-10-23T18:49:28.495Z,2.40
2022-10-23T18:51:55.658Z,2.22
2022-10-23T18:54:22.261Z,2.13
2022-10-23T18:56:51.412Z,2.30
2022-10-23T18:59:20.356Z,3.17
2022-10-23T19:01:47.226Z,3.10
2022-10-23T19:04:15.957Z,2.92
2022-10-23T19:06:42.835Z,2.30
2022-10-23T19:09:13.685Z,2.55
2022-10-23T19:11:43.458Z,2.85
2022-10-23T19:14:10.235Z,2.72
2022-10-23T19:16:46.131Z,2.33
2022-10-23T19:19:21.327Z,2.15
2022-10-23T19:21:48.490Z,1.85
2022-10-23T19:24:19.264Z,1.80
2022-10-23T19:26:46.211Z,1.88
2022-10-23T19:29:18.604Z,1.60
2022-10-23T19:31:49.283Z,1.80
2022-10-23T19:34:21.582Z,1.60
2022-10-23T19:36:48.697Z,1.90
2022-10-23T19:39:16.036Z,1.67
2022-10-23T19:41:43.080Z,1.30
2022-10-23T19:44:09.588Z,1.23
2022-10-23T19:46:37.208Z,1.50
2022-10-23T19:49:05.352Z,1.38
2022-10-23T19:51:32.590Z,1.15
2022-10-23T19:53:59.079Z,1.58
2022-10-23T19:56:27.830Z,1.27
2022-10-23T19:58:54.706Z,1.52
2022-10-23T20:01:24.497Z,1.50
2022-10-23T20:03:51.688Z,1.48
2022-10-23T20:06:24.836Z,1.52
2022-10-23T20:08:51.949Z,1.50
2022-10-23T20:11:25.484Z,2.08
2022-10-23T20:13:52.633Z,1.98
2022-10-23T20:16:21.602Z,1.60
2022-10-23T20:18:49.383Z,1.92
2022-10-23T20:21:16.275Z,2.00
2022-10-23T20:23:43.311Z,1.98
2022-10-23T20:26:12.995Z,1.88
2022-10-23T20:28:39.511Z,2.72
2022-10-23T20:31:08.539Z,2.00
2022-10-23T20:33:36.478Z,1.73
2022-10-23T20:36:04.479Z,1.90
2022-10-23T20:38:31.162Z,1.92
2022-10-23T20:41:00.508Z,2.40
2022-10-23T20:43:27.414Z,2.28
2022-10-23T20:45:53.969Z,2.17
2022-10-23T20:48:32.409Z,1.90
2022-10-23T20:51:02.913Z,2.45
2022-10-23T20:53:29.689Z,2.88
2022-10-23T20:55:58.189Z,2.45
2022-10-23T20:58:24.699Z,2.70
2022-10-23T21:03:27.271Z,3.03
2022-10-23T21:05:53.789Z,3.10
2022-10-23T21:08:20.235Z,2.25
2022-10-23T21:10:47.895Z,2.40
2022-10-23T21:13:14.397Z,2.30
2022-10-23T21:15:45.511Z,2.33
2022-10-23T21:18:26.418Z,2.80
2022-10-23T21:21:00.366Z,2.53
2022-10-23T21:23:28.890Z,2.75
2022-10-23T21:25:55.343Z,2.33
2022-10-23T21:28:21.848Z,2.75
2022-10-23T21:30:48.328Z,2.00
2022-10-23T21:33:14.789Z,2.42
2022-10-23T21:35:52.200Z,1.88
2022-10-23T21:38:25.556Z,1.95
2022-10-23T21:40:55.623Z,2.47
2022-10-23T21:43:22.188Z,2.53
2022-10-23T21:45:48.846Z,2.17
2022-10-23T21:48:15.305Z,2.63
2022-10-23T21:50:42.081Z,2.50
2022-10-23T21:53:10.346Z,2.63
2022-10-23T21:55:36.885Z,3.10
2022-10-23T21:58:03.398Z,2.50
2022-10-23T22:00:31.597Z,2.25
2022-10-23T22:03:00.045Z,2.20
2022-10-23T22:05:26.499Z,2.38
2022-10-23T22:07:53.026Z,2.20
2022-10-23T22:10:19.523Z,2.03
2022-10-23T22:12:46.017Z,2.17
2022-10-23T22:15:21.223Z,2.53
2022-10-23T22:17:47.726Z,2.13
2022-10-23T22:20:14.239Z,2.15
2022-10-23T22:22:40.753Z,2.25
2022-10-23T22:25:07.645Z,2.40
2022-10-23T22:27:34.428Z,2.13
2022-10-23T22:30:05.547Z,1.95
2022-10-23T22:32:32.098Z,1.90
2022-10-23T22:34:58.590Z,2.63
2022-10-23T22:37:29.789Z,2.20
2022-10-23T22:39:56.232Z,1.92
2022-10-23T22:42:22.710Z,1.52
2022-10-23T22:44:51.366Z,2.20
2022-10-23T22:47:17.887Z,2.85
2022-10-23T22:49:44.565Z,2.30
2022-10-23T22:52:12.781Z,2.40
2022-10-23T22:54:39.351Z,1.85
2022-10-23T22:57:05.830Z,1.80
2022-10-23T22:59:37.401Z,2.33
2022-10-23T23:02:04.102Z,3.20
2022-10-23T23:04:38.888Z,2.38
2022-10-23T23:07:12.387Z,2.50
2022-10-23T23:09:41.276Z,2.50
2022-10-23T23:12:09.391Z,3.25
2022-10-23T23:14:36.474Z,2.72
2022-10-23T23:17:03.677Z,2.08
2022-10-23T23:19:30.394Z,3.28
2022-10-23T23:22:03.943Z,2.25
2022-10-23T23:24:30.465Z,2.03
2022-10-23T23:26:57.014Z,2.35
2022-10-23T23:29:23.640Z,2.53
2022-10-23T23:31:53.560Z,2.00
2022-10-23T23:34:20.902Z,1.88
2022-10-23T23:36:47.516Z,1.83
2022-10-23T23:39:14.030Z,1.80
2022-10-23T23:41:40.475Z,1.90
2022-10-23T23:44:14.710Z,2.40
2022-10-23T23:46:41.211Z,2.03
2022-10-23T23:49:07.701Z,2.50
2022-10-23T23:51:34.394Z,4.65
2022-10-23T23:54:00.926Z,3.25
2022-10-23T23:56:28.152Z,2.63
2022-10-23T23:58:56.619Z,2.40
